sensor_id;sensor_type;location;lat;lon;timestamp;temperature;humidity
14357;DHT22;7262;48.764;9.166;2022-11-15T00:01:28;8.30;99.90
14357;DHT22;7262;48.764;9.166;2022-11-15T00:03:57;8.30;99.90
14357;DHT22;7262;48.764;9.166;2022-11-15T00:06:26;8.30;99.90
14357;DHT22;7262;48.764;9.166;2022-11-15T00:08:52;8.30;99.90
14357;DHT22;7262;48.764;9.166;2022-11-15T00:11:19;8.30;99.90
14357;DHT22;7262;48.764;9.166;2022-11-15T00:13:46;8.40;99.90
14357;DHT22;7262;48.764;9.166;2022-11-15T00:16:12;8.40;99.90
14357;DHT22;7262;48.764;9.166;2022-11-15T00:18:39;8.40;99.90
14357;DHT22;7262;48.764;9.166;2022-11-15T00:21:08;8.40;99.90
14357;DHT22;7262;48.764;9.166;2022-11-15T00:23:37;8.40;99.90
14357;DHT22;7262;48.764;9.166;2022-11-15T00:26:03;8.40;99.90
14357;DHT22;7262;48.764;9.166;2022-11-15T00:28:32;8.40;99.90
14357;DHT22;7262;48.764;9.166;2022-11-15T00:30:59;8.50;99.90
14357;DHT22;7262;48.764;9.166;2022-11-15T00:33:26;8.50;99.90
14357;DHT22;7262;48.764;9.166;2022-11-15T00:35:53;8.50;99.90
14357;DHT22;7262;48.764;9.166;2022-11-15T00:38:19;8.50;99.90
14357;DHT22;7262;48.764;9.166;2022-11-15T00:40:47;8.50;99.90
14357;DHT22;7262;48.764;9.166;2022-11-15T00:43:14;8.50;99.90
14357;DHT22;7262;48.764;9.166;2022-11-15T00:45:41;8.50;99.90
14357;DHT22;7262;48.764;9.166;2022-11-15T00:48:08;8.50;99.90
14357;DHT22;7262;48.764;9.166;2022-11-15T00:50:36;8.40;99.90
14357;DHT22;7262;48.764;9.166;2022-11-15T00:53:02;8.40;99.90
14357;DHT22;7262;48.764;9.166;2022-11-15T00:55:29;8.40;99.90
14357;DHT22;7262;48.764;9.166;2022-11-15T00:57:57;8.40;99.90
14357;DHT22;7262;48.764;9.166;2022-11-15T01:00:24;8.30;99.90
14357;DHT22;7262;48.764;9.166;2022-11-15T01:02:50;8.30;99.90
14357;DHT22;7262;48.764;9.166;2022-11-15T01:05:17;8.20;99.90
14357;DHT22;7262;48.764;9.166;2022-11-15T01:07:44;8.20;99.90
14357;DHT22;7262;48.764;9.166;2022-11-15T01:10:11;8.20;99.90
14357;DHT22;7262;48.764;9.166;2022-11-15T01:12:37;8.20;99.90
14357;DHT22;7262;48.764;9.166;2022-11-15T01:15:06;8.10;99.90
14357;DHT22;7262;48.764;9.166;2022-11-15T01:17:33;8.00;99.90
14357;DHT22;7262;48.764;9.166;2022-11-15T01:19:59;8.00;99.90
14357;DHT22;7262;48.764;9.166;2022-11-15T01:22:26;8.00;99.90
14357;DHT22;7262;48.764;9.166;2022-11-15T01:24:53;8.00;99.90
14357;DHT22;7262;48.764;9.166;2022-11-15T01:27:20;8.00;99.90
14357;DHT22;7262;48.764;9.166;2022-11-15T01:29:47;8.00;99.90
14357;DHT22;7262;48.764;9.166;2022-11-15T01:32:16;7.90;99.90
14357;DHT22;7262;48.764;9.166;2022-11-15T01:34:43;7.80;99.90
14357;DHT22;7262;48.764;9.166;2022-11-15T01:37:09;7.70;99.90
14357;DHT22;7262;48.764;9.166;2022-11-15T01:39:36;7.60;99.90
14357;DHT22;7262;48.764;9.166;2022-11-15T01:42:03;7.60;99.90
14357;DHT22;7262;48.764;9.166;2022-11-15T01:44:42;7.50;99.90
14357;DHT22;7262;48.764;9.166;2022-11-15T01:47:11;7.50;99.90
14357;DHT22;7262;48.764;9.166;2022-11-15T01:49:42;7.40;99.90
14357;DHT22;7262;48.764;9.166;2022-11-15T01:52:12;7.40;99.90
14357;DHT22;7262;48.764;9.166;2022-11-15T01:54:39;7.40;99.90
14357;DHT22;7262;48.764;9.166;2022-11-15T01:57:07;7.40;99.90
14357;DHT22;7262;48.764;9.166;2022-11-15T01:59:35;7.40;99.90
14357;DHT22;7262;48.764;9.166;2022-11-15T02:02:02;7.30;99.90
14357;DHT22;7262;48.764;9.166;2022-11-15T02:04:30;7.30;99.90
14357;DHT22;7262;48.764;9.166;2022-11-15T02:06:59;7.30;99.90
14357;DHT22;7262;48.764;9.166;2022-11-15T02:09:26;7.30;99.90
14357;DHT22;7262;48.764;9.166;2022-11-15T02:11:53;7.30;99.90
14357;DHT22;7262;48.764;9.166;2022-11-15T02:14:21;7.30;99.90
14357;DHT22;7262;48.764;9.166;2022-11-15T02:16:51;7.20;99.90
14357;DHT22;7262;48.764;9.166;2022-11-15T02:19:26;7.20;99.90
14357;DHT22;7262;48.764;9.166;2022-11-15T02:21:57;7.20;99.90
14357;DHT22;7262;48.764;9.166;2022-11-15T02:27:29;7.20;99.90
14357;DHT22;7262;48.764;9.166;2022-11-15T02:30:02;7.10;99.90
14357;DHT22;7262;48.764;9.166;2022-11-15T02:32:32;7.20;99.90
14357;DHT22;7262;48.764;9.166;2022-11-15T02:35:02;7.20;99.90
14357;DHT22;7262;48.764;9.166;2022-11-15T02:37:31;7.10;99.90
14357;DHT22;7262;48.764;9.166;2022-11-15T02:40:00;7.10;99.90
14357;DHT22;7262;48.764;9.166;2022-11-15T02:42:30;7.10;99.90
14357;DHT22;7262;48.764;9.166;2022-11-15T02:45:17;7.10;99.90
14357;DHT22;7262;48.764;9.166;2022-11-15T02:47:47;7.10;99.90
14357;DHT22;7262;48.764;9.166;2022-11-15T02:50:16;7.10;99.90
14357;DHT22;7262;48.764;9.166;2022-11-15T02:52:44;7.10;99.90
14357;DHT22;7262;48.764;9.166;2022-11-15T02:55:25;7.20;99.90
14357;DHT22;7262;48.764;9.166;2022-11-15T02:57:52;7.20;99.90
14357;DHT22;7262;48.764;9.166;2022-11-15T03:00:23;7.20;99.90
14357;DHT22;7262;48.764;9.166;2022-11-15T03:02:59;7.20;99.90
14357;DHT22;7262;48.764;9.166;2022-11-15T03:05:32;7.20;99.90
14357;DHT22;7262;48.764;9.166;2022-11-15T03:08:05;7.10;99.90
14357;DHT22;7262;48.764;9.166;2022-11-15T03:10:41;7.10;99.90
14357;DHT22;7262;48.764;9.166;2022-11-15T03:13:13;7.10;99.90
14357;DHT22;7262;48.764;9.166;2022-11-15T03:15:43;7.10;99.90
14357;DHT22;7262;48.764;9.166;2022-11-15T03:18:17;7.10;99.90
14357;DHT22;7262;48.764;9.166;2022-11-15T03:20:46;7.00;99.90
14357;DHT22;7262;48.764;9.166;2022-11-15T03:23:13;7.00;99.90
14357;DHT22;7262;48.764;9.166;2022-11-15T03:25:40;7.00;99.90
14357;DHT22;7262;48.764;9.166;2022-11-15T03:28:08;7.00;99.90
14357;DHT22;7262;48.764;9.166;2022-11-15T03:30:36;7.00;99.90
14357;DHT22;7262;48.764;9.166;2022-11-15T03:33:03;7.00;99.90
14357;DHT22;7262;48.764;9.166;2022-11-15T03:35:32;7.00;99.90
14357;DHT22;7262;48.764;9.166;2022-11-15T03:38:00;7.00;99.90
14357;DHT22;7262;48.764;9.166;2022-11-15T03:40:33;7.00;99.90
14357;DHT22;7262;48.764;9.166;2022-11-15T03:43:02;7.10;99.90
14357;DHT22;7262;48.764;9.166;2022-11-15T03:45:31;7.10;99.90
14357;DHT22;7262;48.764;9.166;2022-11-15T03:48:01;7.10;99.90
14357;DHT22;7262;48.764;9.166;2022-11-15T03:50:28;7.00;99.90
14357;DHT22;7262;48.764;9.166;2022-11-15T03:52:57;7.00;99.90
14357;DHT22;7262;48.764;9.166;2022-11-15T03:55:24;7.00;99.90
14357;DHT22;7262;48.764;9.166;2022-11-15T03:57:52;7.00;99.90
14357;DHT22;7262;48.764;9.166;2022-11-15T04:00:20;7.00;99.90
14357;DHT22;7262;48.764;9.166;2022-11-15T04:02:46;7.00;99.90
14357;DHT22;7262;48.764;9.166;2022-11-15T04:05:13;7.00;99.90
14357;DHT22;7262;48.764;9.166;2022-11-15T04:07:40;7.00;99.90
14357;DHT22;7262;48.764;9.166;2022-11-15T04:10:10;7.10;99.90
14357;DHT22;7262;48.764;9.166;2022-11-15T04:12:38;7.10;99.90
14357;DHT22;7262;48.764;9.166;2022-11-15T04:15:08;7.10;99.90
14357;DHT22;7262;48.764;9.166;2022-11-15T04:17:36;7.10;99.90
14357;DHT22;7262;48.764;9.166;2022-11-15T04:20:03;7.10;99.90
14357;DHT22;7262;48.764;9.166;2022-11-15T04:22:47;7.10;99.90
14357;DHT22;7262;48.764;9.166;2022-11-15T04:25:33;7.20;99.90
14357;DHT22;7262;48.764;9.166;2022-11-15T04:28:00;7.20;99.90
14357;DHT22;7262;48.764;9.166;2022-11-15T04:30:27;7.30;99.90
14357;DHT22;7262;48.764;9.166;2022-11-15T04:32:53;7.30;99.90
14357;DHT22;7262;48.764;9.166;2022-11-15T04:35:20;7.40;99.90
14357;DHT22;7262;48.764;9.166;2022-11-15T04:37:47;7.40;99.90
14357;DHT22;7262;48.764;9.166;2022-11-15T04:40:14;7.40;99.90
14357;DHT22;7262;48.764;9.166;2022-11-15T04:42:43;7.40;99.90
14357;DHT22;7262;48.764;9.166;2022-11-15T04:45:09;7.40;99.90
14357;DHT22;7262;48.764;9.166;2022-11-15T04:47:36;7.40;99.90
14357;DHT22;7262;48.764;9.166;2022-11-15T04:50:03;7.40;99.90
14357;DHT22;7262;48.764;9.166;2022-11-15T04:52:31;7.40;99.90
14357;DHT22;7262;48.764;9.166;2022-11-15T04:54:58;7.30;99.90
14357;DHT22;7262;48.764;9.166;2022-11-15T04:57:25;7.30;99.90
14357;DHT22;7262;48.764;9.166;2022-11-15T04:59:53;7.30;99.90
14357;DHT22;7262;48.764;9.166;2022-11-15T05:02:20;7.20;99.90
14357;DHT22;7262;48.764;9.166;2022-11-15T05:04:47;7.20;99.90
14357;DHT22;7262;48.764;9.166;2022-11-15T05:07:12;7.20;99.90
14357;DHT22;7262;48.764;9.166;2022-11-15T05:09:39;7.20;99.90
14357;DHT22;7262;48.764;9.166;2022-11-15T05:12:06;7.30;99.90
14357;DHT22;7262;48.764;9.166;2022-11-15T05:14:34;7.30;99.90
14357;DHT22;7262;48.764;9.166;2022-11-15T05:17:02;7.30;99.90
14357;DHT22;7262;48.764;9.166;2022-11-15T05:19:29;7.30;99.90
14357;DHT22;7262;48.764;9.166;2022-11-15T05:21:56;7.30;99.90
14357;DHT22;7262;48.764;9.166;2022-11-15T05:24:22;7.30;99.90
14357;DHT22;7262;48.764;9.166;2022-11-15T05:26:49;7.20;99.90
14357;DHT22;7262;48.764;9.166;2022-11-15T05:29:17;7.20;99.90
14357;DHT22;7262;48.764;9.166;2022-11-15T05:31:44;7.20;99.90
14357;DHT22;7262;48.764;9.166;2022-11-15T05:34:12;7.20;99.90
14357;DHT22;7262;48.764;9.166;2022-11-15T05:36:38;7.20;99.90
14357;DHT22;7262;48.764;9.166;2022-11-15T05:39:07;7.20;99.90
14357;DHT22;7262;48.764;9.166;2022-11-15T05:41:35;7.20;99.90
14357;DHT22;7262;48.764;9.166;2022-11-15T05:44:03;7.30;99.90
14357;DHT22;7262;48.764;9.166;2022-11-15T05:46:31;7.30;99.90
14357;DHT22;7262;48.764;9.166;2022-11-15T05:48:59;7.30;99.90
14357;DHT22;7262;48.764;9.166;2022-11-15T05:51:27;7.20;99.90
14357;DHT22;7262;48.764;9.166;2022-11-15T05:53:55;7.30;99.90
14357;DHT22;7262;48.764;9.166;2022-11-15T05:56:24;7.30;99.90
14357;DHT22;7262;48.764;9.166;2022-11-15T05:58:51;7.30;99.90
14357;DHT22;7262;48.764;9.166;2022-11-15T06:01:18;7.30;99.90
14357;DHT22;7262;48.764;9.166;2022-11-15T06:03:45;7.30;99.90
14357;DHT22;7262;48.764;9.166;2022-11-15T06:06:12;7.40;99.90
14357;DHT22;7262;48.764;9.166;2022-11-15T06:08:40;7.40;99.90
14357;DHT22;7262;48.764;9.166;2022-11-15T06:11:07;7.40;99.90
14357;DHT22;7262;48.764;9.166;2022-11-15T06:13:35;7.40;99.90
14357;DHT22;7262;48.764;9.166;2022-11-15T06:16:02;7.50;99.90
14357;DHT22;7262;48.764;9.166;2022-11-15T06:18:31;7.50;99.90
14357;DHT22;7262;48.764;9.166;2022-11-15T06:20:58;7.50;99.90
14357;DHT22;7262;48.764;9.166;2022-11-15T06:23:26;7.50;99.90
14357;DHT22;7262;48.764;9.166;2022-11-15T06:25:57;7.50;99.90
14357;DHT22;7262;48.764;9.166;2022-11-15T06:28:23;7.50;99.90
14357;DHT22;7262;48.764;9.166;2022-11-15T06:30:50;7.50;99.90
14357;DHT22;7262;48.764;9.166;2022-11-15T06:33:17;7.60;99.90
14357;DHT22;7262;48.764;9.166;2022-11-15T06:35:43;7.60;99.90
14357;DHT22;7262;48.764;9.166;2022-11-15T06:38:10;7.50;99.90
14357;DHT22;7262;48.764;9.166;2022-11-15T06:40:38;7.60;99.90
14357;DHT22;7262;48.764;9.166;2022-11-15T06:43:07;7.50;99.90
14357;DHT22;7262;48.764;9.166;2022-11-15T06:45:35;7.50;99.90
14357;DHT22;7262;48.764;9.166;2022-11-15T06:48:01;7.60;99.90
14357;DHT22;7262;48.764;9.166;2022-11-15T06:50:28;7.50;99.90
14357;DHT22;7262;48.764;9.166;2022-11-15T06:52:55;7.60;99.90
14357;DHT22;7262;48.764;9.166;2022-11-15T06:55:21;7.70;99.90
14357;DHT22;7262;48.764;9.166;2022-11-15T06:57:48;7.80;99.90
14357;DHT22;7262;48.764;9.166;2022-11-15T07:00:18;7.80;99.90
14357;DHT22;7262;48.764;9.166;2022-11-15T07:02:46;7.80;99.90
14357;DHT22;7262;48.764;9.166;2022-11-15T07:05:14;7.90;99.90
14357;DHT22;7262;48.764;9.166;2022-11-15T07:07:41;7.90;99.90
14357;DHT22;7262;48.764;9.166;2022-11-15T07:10:08;7.90;99.90
14357;DHT22;7262;48.764;9.166;2022-11-15T07:12:35;8.10;99.90
14357;DHT22;7262;48.764;9.166;2022-11-15T07:15:02;8.10;99.90
14357;DHT22;7262;48.764;9.166;2022-11-15T07:17:30;8.20;99.90
14357;DHT22;7262;48.764;9.166;2022-11-15T07:19:57;8.30;99.90
14357;DHT22;7262;48.764;9.166;2022-11-15T07:22:23;8.40;99.90
14357;DHT22;7262;48.764;9.166;2022-11-15T07:24:50;8.40;99.90
14357;DHT22;7262;48.764;9.166;2022-11-15T07:27:17;8.60;99.90
14357;DHT22;7262;48.764;9.166;2022-11-15T07:29:45;8.70;99.90
14357;DHT22;7262;48.764;9.166;2022-11-15T07:32:11;8.80;99.90
14357;DHT22;7262;48.764;9.166;2022-11-15T07:34:39;9.00;99.90
14357;DHT22;7262;48.764;9.166;2022-11-15T07:37:06;9.10;99.90
14357;DHT22;7262;48.764;9.166;2022-11-15T07:39:33;9.30;99.90
14357;DHT22;7262;48.764;9.166;2022-11-15T07:41:59;9.50;99.90
14357;DHT22;7262;48.764;9.166;2022-11-15T07:44:44;9.60;99.90
14357;DHT22;7262;48.764;9.166;2022-11-15T07:47:11;9.90;99.90
14357;DHT22;7262;48.764;9.166;2022-11-15T07:49:39;10.10;99.90
14357;DHT22;7262;48.764;9.166;2022-11-15T07:52:06;10.30;99.90
14357;DHT22;7262;48.764;9.166;2022-11-15T07:54:35;10.50;99.90
14357;DHT22;7262;48.764;9.166;2022-11-15T07:57:02;10.60;99.90
14357;DHT22;7262;48.764;9.166;2022-11-15T07:59:29;10.70;99.90
14357;DHT22;7262;48.764;9.166;2022-11-15T08:01:56;11.00;99.90
14357;DHT22;7262;48.764;9.166;2022-11-15T08:04:23;11.00;99.90
14357;DHT22;7262;48.764;9.166;2022-11-15T08:06:51;11.20;99.90
14357;DHT22;7262;48.764;9.166;2022-11-15T08:09:18;11.30;99.90
14357;DHT22;7262;48.764;9.166;2022-11-15T08:11:45;11.50;99.90
14357;DHT22;7262;48.764;9.166;2022-11-15T08:14:11;11.60;99.90
14357;DHT22;7262;48.764;9.166;2022-11-15T08:16:38;11.70;99.90
14357;DHT22;7262;48.764;9.166;2022-11-15T08:19:05;11.90;99.90
14357;DHT22;7262;48.764;9.166;2022-11-15T08:21:31;11.80;99.90
14357;DHT22;7262;48.764;9.166;2022-11-15T08:23:59;11.70;99.90
14357;DHT22;7262;48.764;9.166;2022-11-15T08:26:26;11.60;99.90
14357;DHT22;7262;48.764;9.166;2022-11-15T08:28:55;11.50;99.90
14357;DHT22;7262;48.764;9.166;2022-11-15T08:31:22;11.50;99.90
14357;DHT22;7262;48.764;9.166;2022-11-15T08:33:48;11.50;99.90
14357;DHT22;7262;48.764;9.166;2022-11-15T08:36:16;11.40;99.90
14357;DHT22;7262;48.764;9.166;2022-11-15T08:38:43;11.40;99.90
14357;DHT22;7262;48.764;9.166;2022-11-15T08:41:13;11.30;99.90
14357;DHT22;7262;48.764;9.166;2022-11-15T08:43:42;11.40;99.90
14357;DHT22;7262;48.764;9.166;2022-11-15T08:46:10;11.30;99.90
14357;DHT22;7262;48.764;9.166;2022-11-15T08:48:38;11.30;99.90
14357;DHT22;7262;48.764;9.166;2022-11-15T08:51:05;11.40;99.90
14357;DHT22;7262;48.764;9.166;2022-11-15T08:53:31;11.60;99.90
14357;DHT22;7262;48.764;9.166;2022-11-15T08:55:58;11.70;99.90
14357;DHT22;7262;48.764;9.166;2022-11-15T08:58:27;11.70;99.90
14357;DHT22;7262;48.764;9.166;2022-11-15T09:03:30;11.90;99.90
14357;DHT22;7262;48.764;9.166;2022-11-15T09:08:32;12.40;99.90
14357;DHT22;7262;48.764;9.166;2022-11-15T09:11:02;12.70;99.90
14357;DHT22;7262;48.764;9.166;2022-11-15T09:13:33;12.90;99.90
14357;DHT22;7262;48.764;9.166;2022-11-15T09:16:02;13.10;99.90
14357;DHT22;7262;48.764;9.166;2022-11-15T09:18:31;13.30;99.90
14357;DHT22;7262;48.764;9.166;2022-11-15T09:23:35;13.90;99.90
14357;DHT22;7262;48.764;9.166;2022-11-15T09:26:03;14.10;99.90
14357;DHT22;7262;48.764;9.166;2022-11-15T09:41:33;15.60;99.90
14357;DHT22;7262;48.764;9.166;2022-11-15T09:46:38;15.50;99.90
14357;DHT22;7262;48.764;9.166;2022-11-15T09:49:11;15.30;99.90
14357;DHT22;7262;48.764;9.166;2022-11-15T09:51:40;15.10;99.90
14357;DHT22;7262;48.764;9.166;2022-11-15T09:54:13;15.00;99.90
14357;DHT22;7262;48.764;9.166;2022-11-15T09:56:44;15.30;99.90
14357;DHT22;7262;48.764;9.166;2022-11-15T09:59:15;15.60;99.90
14357;DHT22;7262;48.764;9.166;2022-11-15T10:01:44;15.70;99.90
14357;DHT22;7262;48.764;9.166;2022-11-15T10:04:14;15.90;99.90
14357;DHT22;7262;48.764;9.166;2022-11-15T10:06:43;16.10;99.90
14357;DHT22;7262;48.764;9.166;2022-11-15T10:09:13;16.10;99.90
14357;DHT22;7262;48.764;9.166;2022-11-15T10:11:41;16.00;99.90
14357;DHT22;7262;48.764;9.166;2022-11-15T10:14:10;16.10;99.90
14357;DHT22;7262;48.764;9.166;2022-11-15T10:19:21;15.80;99.90
14357;DHT22;7262;48.764;9.166;2022-11-15T10:21:52;15.80;99.90
14357;DHT22;7262;48.764;9.166;2022-11-15T10:24:25;15.70;99.90
14357;DHT22;7262;48.764;9.166;2022-11-15T10:26:54;15.60;99.90
14357;DHT22;7262;48.764;9.166;2022-11-15T10:29:25;15.60;99.90
14357;DHT22;7262;48.764;9.166;2022-11-15T10:31:52;15.50;99.90
14357;DHT22;7262;48.764;9.166;2022-11-15T10:34:20;15.50;99.90
14357;DHT22;7262;48.764;9.166;2022-11-15T10:36:47;15.60;99.90
14357;DHT22;7262;48.764;9.166;2022-11-15T10:39:20;15.50;99.90
14357;DHT22;7262;48.764;9.166;2022-11-15T10:41:47;15.40;99.90
14357;DHT22;7262;48.764;9.166;2022-11-15T10:44:18;15.30;99.90
14357;DHT22;7262;48.764;9.166;2022-11-15T10:46:48;15.30;99.90
14357;DHT22;7262;48.764;9.166;2022-11-15T10:49:16;15.40;99.90
14357;DHT22;7262;48.764;9.166;2022-11-15T10:51:45;15.40;99.90
14357;DHT22;7262;48.764;9.166;2022-11-15T10:54:14;15.50;99.90
14357;DHT22;7262;48.764;9.166;2022-11-15T10:56:41;15.60;99.90
14357;DHT22;7262;48.764;9.166;2022-11-15T10:59:14;15.60;99.90
14357;DHT22;7262;48.764;9.166;2022-11-15T11:01:47;15.60;99.90
14357;DHT22;7262;48.764;9.166;2022-11-15T11:04:14;15.60;99.90
14357;DHT22;7262;48.764;9.166;2022-11-15T11:06:48;15.50;99.90
14357;DHT22;7262;48.764;9.166;2022-11-15T11:09:21;15.30;99.90
14357;DHT22;7262;48.764;9.166;2022-11-15T11:11:49;15.20;99.90
14357;DHT22;7262;48.764;9.166;2022-11-15T11:14:17;15.00;99.90
14357;DHT22;7262;48.764;9.166;2022-11-15T11:16:48;14.90;99.90
14357;DHT22;7262;48.764;9.166;2022-11-15T11:22:03;14.80;99.90
14357;DHT22;7262;48.764;9.166;2022-11-15T11:24:34;14.90;99.90
14357;DHT22;7262;48.764;9.166;2022-11-15T11:27:13;15.00;99.90
14357;DHT22;7262;48.764;9.166;2022-11-15T11:29:49;14.90;99.90
14357;DHT22;7262;48.764;9.166;2022-11-15T11:32:28;15.00;99.90
14357;DHT22;7262;48.764;9.166;2022-11-15T11:35:11;15.20;99.90
14357;DHT22;7262;48.764;9.166;2022-11-15T11:37:40;15.20;99.90
14357;DHT22;7262;48.764;9.166;2022-11-15T11:40:20;15.30;99.90
14357;DHT22;7262;48.764;9.166;2022-11-15T11:42:53;15.30;99.90
14357;DHT22;7262;48.764;9.166;2022-11-15T11:45:40;15.40;99.90
14357;DHT22;7262;48.764;9.166;2022-11-15T11:48:20;15.50;99.90
14357;DHT22;7262;48.764;9.166;2022-11-15T11:50:50;15.80;99.90
14357;DHT22;7262;48.764;9.166;2022-11-15T11:53:25;15.90;99.90
14357;DHT22;7262;48.764;9.166;2022-11-15T11:55:54;16.20;99.90
14357;DHT22;7262;48.764;9.166;2022-11-15T11:58:26;16.20;99.90
14357;DHT22;7262;48.764;9.166;2022-11-15T12:00:55;16.20;99.90
14357;DHT22;7262;48.764;9.166;2022-11-15T12:03:24;16.30;99.90
14357;DHT22;7262;48.764;9.166;2022-11-15T12:05:53;16.30;99.90
14357;DHT22;7262;48.764;9.166;2022-11-15T12:08:26;16.30;99.90
14357;DHT22;7262;48.764;9.166;2022-11-15T12:10:57;16.50;99.90
14357;DHT22;7262;48.764;9.166;2022-11-15T12:13:27;16.70;99.90
14357;DHT22;7262;48.764;9.166;2022-11-15T12:16:02;16.80;99.90
14357;DHT22;7262;48.764;9.166;2022-11-15T12:18:31;16.90;99.90
14357;DHT22;7262;48.764;9.166;2022-11-15T12:21:03;16.90;99.90
14357;DHT22;7262;48.764;9.166;2022-11-15T12:23:32;16.70;99.90
14357;DHT22;7262;48.764;9.166;2022-11-15T12:26:02;16.60;99.90
14357;DHT22;7262;48.764;9.166;2022-11-15T12:28:35;16.20;99.90
14357;DHT22;7262;48.764;9.166;2022-11-15T12:31:04;15.90;99.90
14357;DHT22;7262;48.764;9.166;2022-11-15T12:33:35;15.90;99.90
14357;DHT22;7262;48.764;9.166;2022-11-15T12:36:03;15.80;99.90
14357;DHT22;7262;48.764;9.166;2022-11-15T12:38:50;15.60;99.90
14357;DHT22;7262;48.764;9.166;2022-11-15T12:41:18;15.50;99.90
14357;DHT22;7262;48.764;9.166;2022-11-15T12:43:46;15.50;99.90
14357;DHT22;7262;48.764;9.166;2022-11-15T12:46:19;15.40;99.90
14357;DHT22;7262;48.764;9.166;2022-11-15T12:48:51;15.30;99.90
14357;DHT22;7262;48.764;9.166;2022-11-15T12:51:19;15.30;99.90
14357;DHT22;7262;48.764;9.166;2022-11-15T12:53:46;15.30;99.90
14357;DHT22;7262;48.764;9.166;2022-11-15T12:56:23;15.20;99.90
14357;DHT22;7262;48.764;9.166;2022-11-15T12:58:52;15.10;99.90
14357;DHT22;7262;48.764;9.166;2022-11-15T13:04:14;15.00;99.90
14357;DHT22;7262;48.764;9.166;2022-11-15T13:06:50;14.90;99.90
14357;DHT22;7262;48.764;9.166;2022-11-15T13:12:02;14.80;99.90
14357;DHT22;7262;48.764;9.166;2022-11-15T13:14:43;14.80;99.90
14357;DHT22;7262;48.764;9.166;2022-11-15T13:17:22;14.80;99.90
14357;DHT22;7262;48.764;9.166;2022-11-15T13:20:00;14.70;99.90
14357;DHT22;7262;48.764;9.166;2022-11-15T13:22:37;14.70;99.90
14357;DHT22;7262;48.764;9.166;2022-11-15T13:25:39;14.70;99.90
14357;DHT22;7262;48.764;9.166;2022-11-15T13:28:10;14.70;99.90
14357;DHT22;7262;48.764;9.166;2022-11-15T13:30:37;14.60;99.90
14357;DHT22;7262;48.764;9.166;2022-11-15T13:33:07;14.60;99.90
14357;DHT22;7262;48.764;9.166;2022-11-15T13:35:38;14.60;99.90
14357;DHT22;7262;48.764;9.166;2022-11-15T13:38:06;14.60;99.90
14357;DHT22;7262;48.764;9.166;2022-11-15T13:40:34;14.50;99.90
14357;DHT22;7262;48.764;9.166;2022-11-15T13:43:13;14.60;99.90
14357;DHT22;7262;48.764;9.166;2022-11-15T13:45:40;14.60;99.90
14357;DHT22;7262;48.764;9.166;2022-11-15T13:48:07;14.60;99.90
14357;DHT22;7262;48.764;9.166;2022-11-15T13:50:35;14.50;99.90
14357;DHT22;7262;48.764;9.166;2022-11-15T13:53:04;14.50;99.90
14357;DHT22;7262;48.764;9.166;2022-11-15T13:55:31;14.50;99.90
14357;DHT22;7262;48.764;9.166;2022-11-15T13:57:59;14.50;99.90
14357;DHT22;7262;48.764;9.166;2022-11-15T14:00:33;14.30;99.90
14357;DHT22;7262;48.764;9.166;2022-11-15T14:03:08;14.20;99.90
14357;DHT22;7262;48.764;9.166;2022-11-15T14:05:39;14.10;99.90
14357;DHT22;7262;48.764;9.166;2022-11-15T14:08:22;14.00;99.90
14357;DHT22;7262;48.764;9.166;2022-11-15T14:11:04;13.90;99.90
14357;DHT22;7262;48.764;9.166;2022-11-15T14:13:34;13.80;99.90
14357;DHT22;7262;48.764;9.166;2022-11-15T14:16:15;13.70;99.90
14357;DHT22;7262;48.764;9.166;2022-11-15T14:18:43;13.60;99.90
14357;DHT22;7262;48.764;9.166;2022-11-15T14:21:10;13.50;99.90
14357;DHT22;7262;48.764;9.166;2022-11-15T14:23:39;13.40;99.90
14357;DHT22;7262;48.764;9.166;2022-11-15T14:26:10;13.30;99.90
14357;DHT22;7262;48.764;9.166;2022-11-15T14:28:40;13.30;99.90
14357;DHT22;7262;48.764;9.166;2022-11-15T14:31:10;13.30;99.90
14357;DHT22;7262;48.764;9.166;2022-11-15T14:33:40;13.30;99.90
14357;DHT22;7262;48.764;9.166;2022-11-15T14:36:10;13.40;99.90
14357;DHT22;7262;48.764;9.166;2022-11-15T14:38:39;13.30;99.90
14357;DHT22;7262;48.764;9.166;2022-11-15T14:41:08;13.40;99.90
14357;DHT22;7262;48.764;9.166;2022-11-15T14:43:36;13.30;99.90
14357;DHT22;7262;48.764;9.166;2022-11-15T14:46:03;13.30;99.90
14357;DHT22;7262;48.764;9.166;2022-11-15T14:48:30;13.30;99.90
14357;DHT22;7262;48.764;9.166;2022-11-15T14:50:57;13.30;99.90
14357;DHT22;7262;48.764;9.166;2022-11-15T14:53:24;13.30;99.90
14357;DHT22;7262;48.764;9.166;2022-11-15T14:55:53;13.20;99.90
14357;DHT22;7262;48.764;9.166;2022-11-15T14:58:20;13.20;99.90
14357;DHT22;7262;48.764;9.166;2022-11-15T15:00:47;13.30;99.90
14357;DHT22;7262;48.764;9.166;2022-11-15T15:03:14;13.20;99.90
14357;DHT22;7262;48.764;9.166;2022-11-15T15:05:42;13.20;99.90
14357;DHT22;7262;48.764;9.166;2022-11-15T15:08:10;13.00;99.90
14357;DHT22;7262;48.764;9.166;2022-11-15T15:10:37;13.00;99.90
14357;DHT22;7262;48.764;9.166;2022-11-15T15:13:08;13.10;99.90
14357;DHT22;7262;48.764;9.166;2022-11-15T15:15:37;13.00;99.90
14357;DHT22;7262;48.764;9.166;2022-11-15T15:18:04;13.00;99.90
14357;DHT22;7262;48.764;9.166;2022-11-15T15:20:34;12.90;99.90
14357;DHT22;7262;48.764;9.166;2022-11-15T15:23:01;12.90;99.90
14357;DHT22;7262;48.764;9.166;2022-11-15T15:25:28;12.90;99.90
14357;DHT22;7262;48.764;9.166;2022-11-15T15:27:58;12.90;99.90
14357;DHT22;7262;48.764;9.166;2022-11-15T15:30:27;12.70;99.90
14357;DHT22;7262;48.764;9.166;2022-11-15T15:32:55;12.70;99.90
14357;DHT22;7262;48.764;9.166;2022-11-15T15:35:22;12.60;99.90
14357;DHT22;7262;48.764;9.166;2022-11-15T15:37:49;12.60;99.90
14357;DHT22;7262;48.764;9.166;2022-11-15T15:40:17;12.60;99.90
14357;DHT22;7262;48.764;9.166;2022-11-15T15:42:45;12.50;99.90
14357;DHT22;7262;48.764;9.166;2022-11-15T15:45:12;12.50;99.90
14357;DHT22;7262;48.764;9.166;2022-11-15T15:47:43;12.40;99.90
14357;DHT22;7262;48.764;9.166;2022-11-15T15:50:14;12.50;99.90
14357;DHT22;7262;48.764;9.166;2022-11-15T15:52:46;12.50;99.90
14357;DHT22;7262;48.764;9.166;2022-11-15T15:55:14;12.50;99.90
14357;DHT22;7262;48.764;9.166;2022-11-15T15:57:42;12.40;99.90
14357;DHT22;7262;48.764;9.166;2022-11-15T16:00:10;12.30;99.90
14357;DHT22;7262;48.764;9.166;2022-11-15T16:02:36;12.20;99.90
14357;DHT22;7262;48.764;9.166;2022-11-15T16:05:05;12.30;99.90
14357;DHT22;7262;48.764;9.166;2022-11-15T16:07:32;12.20;99.90
14357;DHT22;7262;48.764;9.166;2022-11-15T16:09:58;12.20;99.90
14357;DHT22;7262;48.764;9.166;2022-11-15T16:12:28;12.20;99.90
14357;DHT22;7262;48.764;9.166;2022-11-15T16:14:56;12.20;99.90
14357;DHT22;7262;48.764;9.166;2022-11-15T16:17:23;12.20;99.90
14357;DHT22;7262;48.764;9.166;2022-11-15T16:19:53;12.20;99.90
14357;DHT22;7262;48.764;9.166;2022-11-15T16:22:21;12.20;99.90
14357;DHT22;7262;48.764;9.166;2022-11-15T16:24:48;12.20;99.90
14357;DHT22;7262;48.764;9.166;2022-11-15T16:27:15;12.30;99.90
14357;DHT22;7262;48.764;9.166;2022-11-15T16:29:42;12.10;99.90
14357;DHT22;7262;48.764;9.166;2022-11-15T16:32:09;12.20;99.90
14357;DHT22;7262;48.764;9.166;2022-11-15T16:34:36;12.20;99.90
14357;DHT22;7262;48.764;9.166;2022-11-15T16:37:04;12.10;99.90
14357;DHT22;7262;48.764;9.166;2022-11-15T16:39:32;12.10;99.90
14357;DHT22;7262;48.764;9.166;2022-11-15T16:41:59;12.10;99.90
14357;DHT22;7262;48.764;9.166;2022-11-15T16:44:27;12.00;99.90